Partly Cloudy Current Weather (METAR) For Cancun Airport

All times on the weather descriptions are local

Observed at 14:41 - (1 hr 9 mins ago)

Partly Cloudy

32°C

Partly Cloudy
Clouds: Scattered Clouds at 1,800ft
Wind: 050° at 08 knots
Visibility: 7 statute miles
QNH:
Dew Point: 23°C
Runway in Use: Likely Runway 12

Sunrise Today: 06:19
Sunset Today: 19:28

Forecast Weather (TAF) For Cancun Airport

Issued at 19:00 - (1 day 3 hrs ago)


Runway in Use: Unable to determine, wind is clam

Forecast valid until 19:00 on Wednesday

METAR/TAF RAW METAR / TAF

MMUN 291941Z 05008KT 7SM SCT018TCU 32/23 A3004 RMK 8/200 DSNT CB W FU W HZY

Weather Widget

Put weather from any of our airports on your website with our weather widget.

Find Another Search

Airport Search


Please Wait Please Wait - Loading
Close
Close

Login

Username:

Password:

Remember Me:

Remember me on this computer

Forgotten your password? Get a reset password sent to your registered e-mail address

Close

User Private Message

Subject:

Message: